Time;durP1;ratioP1;P1;durP2;ratioP2;P2;SDS_P1;SDS_P2;PMS_P1;PMS_P2;Temp;Humidity;BMP_temperature;BMP_pressure;BME280_temperature;BME280_humidity;BME280_pressure;Samples;Min_cycle;Max_cycle;Signal;HPM_P1;HPM_P2
2021/12/13 00:01:26;;;;;;;;;28.25;26.00;;;;;11.05;97.81;101834.22;5075235;27;45324;-65
2021/12/13 00:04:09;;;;;;;;;36.75;28.00;;;;;11.03;96.90;101828.13;5072189;28;45370;-62
2021/12/13 00:06:39;;;;;;;;;32.75;29.75;;;;;11.01;97.44;101824.66;5055821;28;45457;-67
2021/12/13 00:09:11;;;;;;;;;30.75;25.50;;;;;10.95;97.09;101821.28;5056155;28;46216;-67
2021/12/13 00:11:42;;;;;;;;;32.00;27.00;;;;;10.97;97.12;101829.13;5056217;28;45509;-63
2021/12/13 00:14:13;;;;;;;;;25.00;23.75;;;;;10.93;97.50;101820.44;5071666;27;45416;-66
2021/12/13 00:16:44;;;;;;;;;27.00;24.00;;;;;10.94;97.52;101823.94;5059079;28;45518;-68
2021/12/13 00:19:18;;;;;;;;;32.75;26.00;;;;;10.94;97.87;101814.28;5058602;28;46438;-67
2021/12/13 00:21:56;;;;;;;;;28.00;24.00;;;;;10.95;97.70;101805.47;5056765;28;45477;-67
2021/12/13 00:24:27;;;;;;;;;26.00;21.75;;;;;10.93;97.59;101802.00;5056685;28;45460;-66
2021/12/13 00:27:12;;;;;;;;;22.00;19.25;;;;;10.94;97.22;101798.47;5056846;28;45334;-66
2021/12/13 00:29:53;;;;;;;;;26.25;24.75;;;;;10.93;97.53;101804.66;5056218;28;45739;-65
2021/12/13 00:32:23;;;;;;;;;24.75;21.50;;;;;10.88;97.42;101800.38;5061908;28;45269;-66
2021/12/13 00:34:54;;;;;;;;;31.00;25.50;;;;;10.86;97.15;101792.53;5073229;27;45353;-66
2021/12/13 00:37:34;;;;;;;;;22.25;21.25;;;;;10.88;97.48;101800.38;5056365;28;45290;-66
2021/12/13 00:40:05;;;;;;;;;24.75;21.75;;;;;10.71;97.45;101771.81;5055334;28;47081;-65
2021/12/13 00:42:37;;;;;;;;;27.25;24.50;;;;;10.85;96.96;101792.53;5055255;27;45306;-68
2021/12/13 00:45:08;;;;;;;;;29.00;21.25;;;;;10.86;97.53;101795.16;5055853;27;45916;-67
2021/12/13 00:47:37;;;;;;;;;23.50;22.00;;;;;10.88;97.36;101797.75;5056592;28;45439;-60
2021/12/13 00:50:02;;;;;;;;;23.75;19.25;;;;;10.88;97.29;101798.63;5060417;28;45469;-65
2021/12/13 00:52:31;;;;;;;;;27.25;23.00;;;;;10.87;97.39;101801.28;5056105;28;45447;-65
2021/12/13 00:54:58;;;;;;;;;25.25;23.75;;;;;10.86;97.51;101796.91;5056579;28;45386;-65
2021/12/13 00:57:29;;;;;;;;;36.25;31.50;;;;;10.86;97.79;101795.16;5057931;28;45568;-68
2021/12/13 01:00:09;;;;;;;;;26.75;23.00;;;;;10.87;97.26;101799.53;5058218;28;45457;-66
2021/12/13 01:02:43;;;;;;;;;26.00;23.50;;;;;10.88;97.52;101798.63;5055915;28;45403;-67
2021/12/13 01:05:14;;;;;;;;;27.00;23.00;;;;;10.91;97.08;101806.44;5072462;28;45337;-64
2021/12/13 01:08:03;;;;;;;;;27.00;21.25;;;;;10.92;97.07;101808.19;5076748;27;45228;-65
2021/12/13 01:10:48;;;;;;;;;16.25;14.75;;;;;10.93;96.89;101809.03;5075947;28;45378;-66
2021/12/13 01:13:25;;;;;;;;;26.25;23.75;;;;;10.93;96.88;101807.28;5076818;28;45371;-68
2021/12/13 01:16:11;;;;;;;;;24.00;21.00;;;;;10.93;96.55;101804.66;5075992;28;45409;-68
2021/12/13 01:19:13;;;;;;;;;25.50;21.25;;;;;10.91;96.99;101798.56;5076357;28;45494;-68
2021/12/13 01:27:33;;;;;;;;;29.00;26.00;;;;;10.97;97.16;101797.53;5075987;28;45314;-67
2021/12/13 01:29:59;;;;;;;;;28.00;25.25;;;;;10.99;97.12;101794.88;5076441;27;45547;-64
2021/12/13 01:32:38;;;;;;;;;20.50;19.75;;;;;10.99;97.21;101798.38;5075927;27;47528;-65
2021/12/13 01:35:09;;;;;;;;;26.50;22.50;;;;;11.00;96.40;101786.94;5081165;27;45329;-66
2021/12/13 01:37:35;;;;;;;;;24.25;23.00;;;;;11.01;96.86;101795.72;5078729;28;45287;-64
2021/12/13 01:40:10;;;;;;;;;26.50;22.50;;;;;11.02;97.33;101800.06;5078925;28;46062;-65
2021/12/13 01:42:36;;;;;;;;;29.00;25.00;;;;;10.97;96.78;101794.91;5076689;27;45422;-67
2021/12/13 01:45:10;;;;;;;;;27.00;23.50;;;;;11.00;97.07;101801.88;5076875;28;45241;-67
2021/12/13 01:47:44;;;;;;;;;25.75;22.25;;;;;11.00;96.82;101801.88;5074165;28;45426;-67
2021/12/13 01:50:29;;;;;;;;;26.25;20.25;;;;;10.99;96.70;101806.25;5080387;28;45236;-64
2021/12/13 01:52:56;;;;;;;;;24.75;21.75;;;;;11.00;97.29;101804.50;5075392;28;46191;-65
2021/12/13 01:55:38;;;;;;;;;32.75;24.25;;;;;11.00;97.00;101813.25;5075179;27;45302;-67
2021/12/13 02:01:09;;;;;;;;;28.00;23.75;;;;;11.01;97.40;101804.47;5075638;28;45338;-67
2021/12/13 02:03:46;;;;;;;;;26.75;21.50;;;;;11.01;96.96;101798.34;5075584;28;45406;-67
2021/12/13 02:06:44;;;;;;;;;27.75;25.00;;;;;11.01;97.22;101803.59;5076005;28;45666;-69
2021/12/13 02:09:15;;;;;;;;;30.50;25.25;;;;;11.01;96.95;101807.09;5075137;28;45375;-66
2021/12/13 02:11:44;;;;;;;;;23.50;22.00;;;;;11.02;96.57;101815.88;5075310;28;45562;-66
2021/12/13 02:14:15;;;;;;;;;24.25;21.50;;;;;10.99;96.90;101815.94;5075057;27;46503;-62
2021/12/13 02:17:00;;;;;;;;;26.25;24.50;;;;;10.98;96.63;101808.94;5073622;28;45404;-66
2021/12/13 02:19:38;;;;;;;;;30.75;24.00;;;;;10.94;97.22;101808.13;5075282;28;45272;-60
2021/12/13 02:22:24;;;;;;;;;22.00;20.25;;;;;10.92;96.94;101808.19;5075223;28;45365;-59
2021/12/13 02:24:52;;;;;;;;;41.50;29.25;;;;;10.93;97.03;101814.28;5075149;28;46087;-64
2021/12/13 02:27:23;;;;;;;;;27.00;22.75;;;;;10.92;96.91;101815.19;5075338;28;45353;-62
2021/12/13 02:29:51;;;;;;;;;24.50;21.00;;;;;10.86;96.62;101808.31;5077307;27;45361;-63
2021/12/13 02:32:17;;;;;;;;;25.00;23.75;;;;;10.89;97.46;101817.91;5079517;28;45333;-61
2021/12/13 02:34:43;;;;;;;;;24.50;24.25;;;;;10.90;97.22;101828.41;5079204;28;46156;-67
2021/12/13 02:37:11;;;;;;;;;31.50;28.00;;;;;10.89;97.03;101812.63;5078736;27;45455;-65
2021/12/13 02:39:44;;;;;;;;;27.75;23.25;;;;;10.89;97.02;101807.38;5078611;27;45341;-64
2021/12/13 02:42:11;;;;;;;;;31.25;25.00;;;;;10.87;96.95;101804.78;5079256;28;45238;-67
2021/12/13 02:44:47;;;;;;;;;29.25;23.00;;;;;10.90;97.17;101807.34;5077489;27;46179;-66
2021/12/13 02:47:35;;;;;;;;;31.00;25.75;;;;;10.89;97.04;101805.63;5079226;28;45365;-67
2021/12/13 02:50:02;;;;;;;;;26.25;20.75;;;;;10.87;97.60;101810.06;5078635;28;45305;-66
2021/12/13 02:52:28;;;;;;;;;27.75;24.25;;;;;10.86;97.24;101810.06;5078393;27;45504;-63
2021/12/13 02:55:11;;;;;;;;;27.75;26.50;;;;;10.85;97.48;101805.69;5078297;28;47214;-65
2021/12/13 02:57:49;;;;;;;;;27.00;25.00;;;;;10.84;97.75;101804.84;5078431;28;45390;-67
2021/12/13 03:00:22;;;;;;;;;23.25;20.25;;;;;10.81;96.86;101800.50;5078107;27;45215;-66
2021/12/13 03:02:52;;;;;;;;;30.00;26.25;;;;;10.80;97.10;101800.56;5078620;27;45417;-66
2021/12/13 03:05:38;;;;;;;;;26.50;21.75;;;;;10.83;97.67;101803.13;5078209;28;45238;-66
2021/12/13 03:08:20;;;;;;;;;29.50;26.00;;;;;10.85;97.37;101798.69;5077821;27;45482;-67
2021/12/13 03:10:50;;;;;;;;;30.75;21.00;;;;;10.87;97.22;101799.53;5077632;28;45303;-65
2021/12/13 03:13:18;;;;;;;;;26.25;22.00;;;;;10.86;96.97;101797.78;5078070;27;45320;-66
2021/12/13 03:15:56;;;;;;;;;20.50;18.75;;;;;10.84;97.09;101802.22;5077791;27;46030;-67
2021/12/13 03:18:47;;;;;;;;;22.75;18.25;;;;;10.82;96.91;101802.22;5078351;28;45240;-67
2021/12/13 03:21:18;;;;;;;;;22.25;19.50;;;;;10.80;96.78;101796.13;5080473;27;45380;-68
2021/12/13 03:24:20;;;;;;;;;26.50;20.25;;;;;10.82;97.02;101804.03;5078882;27;45335;-65
2021/12/13 03:27:04;;;;;;;;;22.50;19.75;;;;;10.81;96.60;101799.66;5078020;27;45301;-64
2021/12/13 03:30:04;;;;;;;;;26.25;22.00;;;;;10.80;97.00;101800.56;5080687;28;45169;-66
2021/12/13 03:32:45;;;;;;;;;24.75;22.25;;;;;10.75;97.22;101791.88;5074521;28;45572;-67
2021/12/13 03:35:13;;;;;;;;;23.00;19.75;;;;;10.78;96.53;101790.03;5078028;27;45336;-59
2021/12/13 03:37:42;;;;;;;;;19.75;16.75;;;;;10.75;97.19;101794.53;5077306;28;45396;-68
2021/12/13 03:40:20;;;;;;;;;18.75;17.50;;;;;10.74;97.18;101795.41;5075618;27;45444;-67
2021/12/13 03:42:55;;;;;;;;;19.50;17.50;;;;;10.73;96.80;101791.06;5077379;28;45238;-64
2021/12/13 03:45:25;;;;;;;;;20.25;19.50;;;;;10.70;97.18;101784.09;5078195;27;45234;-67
2021/12/13 03:47:55;;;;;;;;;19.25;19.00;;;;;10.76;96.95;101788.34;5078389;28;46238;-63
2021/12/13 03:50:26;;;;;;;;;27.00;23.00;;;;;10.75;96.86;101781.38;5078169;27;45329;-65
2021/12/13 03:52:54;;;;;;;;;27.75;25.75;;;;;10.75;97.33;101784.00;5077978;27;45333;-65
2021/12/13 03:55:22;;;;;;;;;24.25;21.00;;;;;10.76;97.52;101772.56;5077785;28;45272;-68
2021/12/13 03:57:56;;;;;;;;;29.00;22.00;;;;;10.77;97.09;101776.94;5077293;28;46226;-66
2021/12/13 04:00:26;;;;;;;;;25.00;22.00;;;;;10.75;96.80;101770.84;5078926;28;45256;-65
2021/12/13 04:02:55;;;;;;;;;22.25;21.25;;;;;10.75;97.19;101768.22;5088905;27;45443;-67
2021/12/13 04:05:23;;;;;;;;;26.75;24.75;;;;;10.77;96.88;101779.56;5078455;28;45473;-66
2021/12/13 04:07:53;;;;;;;;;23.25;21.75;;;;;10.76;97.02;101770.78;5080016;27;47561;-68
2021/12/13 04:10:31;;;;;;;;;26.75;24.25;;;;;10.76;96.72;101780.47;5076672;28;45235;-67
2021/12/13 04:12:59;;;;;;;;;22.75;18.75;;;;;10.76;97.18;101777.84;5076765;27;45223;-67
2021/12/13 04:15:47;;;;;;;;;24.00;22.00;;;;;10.76;96.87;101778.69;5077656;28;45314;-66
2021/12/13 04:18:29;;;;;;;;;23.75;21.25;;;;;10.75;97.32;101778.72;5076316;27;45743;-67
2021/12/13 04:21:05;;;;;;;;;26.25;23.00;;;;;10.77;97.17;101774.31;5076817;28;45345;-66
2021/12/13 04:23:32;;;;;;;;;19.75;19.75;;;;;10.74;96.66;101779.63;5076923;28;45640;-64
2021/12/13 04:26:00;;;;;;;;;29.75;22.50;;;;;10.72;96.50;101773.53;5076977;27;45361;-61
2021/12/13 04:28:31;;;;;;;;;26.00;21.75;;;;;10.69;96.80;101768.34;5076698;27;45269;-65
2021/12/13 04:31:00;;;;;;;;;22.50;20.75;;;;;10.70;96.60;101784.09;5076494;27;45490;-66
2021/12/13 04:33:42;;;;;;;;;20.50;20.25;;;;;10.68;96.18;101771.88;5092515;27;45445;-64
2021/12/13 04:36:12;;;;;;;;;22.00;18.25;;;;;10.70;96.69;101775.34;5076359;28;45334;-67
2021/12/13 04:38:51;;;;;;;;;20.75;20.50;;;;;10.71;96.70;101779.69;5076743;28;45342;-66
2021/12/13 04:41:26;;;;;;;;;22.75;19.50;;;;;10.72;96.65;101784.06;5077826;27;45360;-66
2021/12/13 04:44:02;;;;;;;;;19.75;18.00;;;;;10.72;96.06;101784.06;5076641;28;45425;-66
2021/12/13 04:46:31;;;;;;;;;20.00;20.00;;;;;10.71;96.30;101777.91;5076277;28;45382;-65
2021/12/13 04:49:03;;;;;;;;;21.25;18.25;;;;;10.71;96.00;101785.81;5076329;28;46383;-68
2021/12/13 04:51:38;;;;;;;;;20.75;18.50;;;;;10.72;96.70;101791.97;5076129;28;45445;-64
2021/12/13 04:54:05;;;;;;;;;23.50;20.00;;;;;10.72;95.98;101797.22;5079958;28;45486;-67
2021/12/13 04:56:31;;;;;;;;;22.00;20.25;;;;;10.71;96.16;101795.50;5076364;27;45410;-66
2021/12/13 04:59:00;;;;;;;;;15.50;15.25;;;;;10.70;96.15;101797.25;5075249;28;47248;-65
2021/12/13 05:01:27;;;;;;;;;21.00;18.50;;;;;10.70;96.22;101799.03;5076740;28;45326;-65
2021/12/13 05:03:56;;;;;;;;;22.00;18.75;;;;;10.68;96.24;101799.03;5075942;27;45253;-66
2021/12/13 05:06:26;;;;;;;;;24.00;20.25;;;;;10.67;96.08;101802.56;5076204;28;45243;-68
2021/12/13 05:08:56;;;;;;;;;3.25;3.25;;;;;10.66;96.48;101798.19;5075884;28;45356;-66
2021/12/13 05:11:23;;;;;;;;;25.75;20.50;;;;;10.59;96.29;101796.59;5075654;27;45218;-66
2021/12/13 05:13:55;;;;;;;;;34.75;32.00;;;;;10.64;96.01;101811.41;5076073;28;45353;-67
2021/12/13 05:16:39;;;;;;;;;23.50;22.25;;;;;10.64;96.56;101807.91;5076008;28;45223;-68
2021/12/13 05:19:07;;;;;;;;;25.50;19.50;;;;;10.64;96.41;101805.25;5075570;27;46261;-63
2021/12/13 05:21:38;;;;;;;;;20.25;19.25;;;;;10.63;96.57;101806.16;5075531;28;45258;-64
2021/12/13 05:24:10;;;;;;;;;21.00;18.25;;;;;10.63;96.00;101808.78;5078245;28;45389;-65
2021/12/13 05:26:49;;;;;;;;;22.75;20.00;;;;;10.62;96.47;101805.31;5080268;27;45591;-64
2021/12/13 05:29:28;;;;;;;;;22.75;21.00;;;;;10.62;96.04;101809.69;5075509;28;48765;-66
2021/12/13 05:32:25;;;;;;;;;20.25;17.25;;;;;10.61;95.50;101807.97;5076218;28;45388;-67
2021/12/13 05:34:54;;;;;;;;;17.25;16.75;;;;;10.56;95.69;101815.94;5075553;28;45375;-67
2021/12/13 05:37:20;;;;;;;;;23.50;19.75;;;;;10.54;96.22;101808.97;5075971;28;45345;-66
2021/12/13 05:40:04;;;;;;;;;19.50;16.75;;;;;10.54;95.88;101820.34;5077381;28;45310;-68
2021/12/13 05:42:41;;;;;;;;;23.25;18.00;;;;;10.54;95.96;101804.56;5075397;28;45306;-66
2021/12/13 05:45:12;;;;;;;;;25.25;19.00;;;;;10.54;96.03;101812.47;5075450;27;45323;-65
2021/12/13 05:47:38;;;;;;;;;20.75;17.25;;;;;10.53;96.02;101808.09;5075576;27;45448;-67
2021/12/13 05:50:07;;;;;;;;;21.75;21.25;;;;;10.56;95.51;101809.81;5075159;28;46384;-66
2021/12/13 05:52:36;;;;;;;;;17.75;14.50;;;;;10.52;95.43;101806.38;5075154;28;45474;-60
2021/12/13 05:55:12;;;;;;;;;22.75;19.25;;;;;10.50;95.52;101813.41;5075415;27;45239;-61
2021/12/13 05:57:43;;;;;;;;;19.50;17.00;;;;;10.52;95.34;101809.00;5074040;27;45391;-58
2021/12/13 06:00:23;;;;;;;;;23.00;18.00;;;;;10.46;95.90;101801.22;5073865;28;48334;-62
2021/12/13 06:03:17;;;;;;;;;20.50;18.75;;;;;10.54;95.08;101806.34;5056814;28;45278;-64
2021/12/13 06:05:52;;;;;;;;;19.50;18.50;;;;;10.52;95.26;101807.25;5078071;27;45366;-66
2021/12/13 06:08:31;;;;;;;;;19.00;18.00;;;;;10.44;95.66;101796.03;5078663;27;45291;-66
2021/12/13 06:11:04;;;;;;;;;19.00;19.00;;;;;10.53;94.87;101810.72;5078887;27;45514;-64
2021/12/13 06:13:55;;;;;;;;;22.00;17.75;;;;;10.50;94.33;101808.16;5078745;28;45399;-65
2021/12/13 06:16:23;;;;;;;;;17.75;17.00;;;;;10.48;94.59;101810.84;5078388;27;45441;-66
2021/12/13 06:18:57;;;;;;;;;21.00;20.75;;;;;10.46;95.14;101806.50;5078549;28;45398;-66
2021/12/13 06:21:41;;;;;;;;;19.00;16.50;;;;;10.42;95.57;101799.56;5078306;27;45443;-65
2021/12/13 06:24:08;;;;;;;;;16.75;16.00;;;;;10.45;94.70;101807.38;5079229;27;45314;-66
2021/12/13 06:26:34;;;;;;;;;21.00;18.75;;;;;10.43;94.83;101806.56;5079306;28;45324;-63
2021/12/13 06:29:02;;;;;;;;;17.50;17.50;;;;;10.47;94.37;101814.38;5078870;27;45636;-67
2021/12/13 06:31:41;;;;;;;;;15.50;13.25;;;;;10.42;94.15;101810.97;5078603;28;46401;-65
2021/12/13 06:34:10;;;;;;;;;16.00;13.75;;;;;10.36;94.18;101806.66;5078614;28;45464;-67
2021/12/13 06:36:41;;;;;;;;;15.50;14.75;;;;;10.38;94.34;101809.25;5081098;27;45266;-66
2021/12/13 06:39:08;;;;;;;;;17.50;15.00;;;;;10.40;94.61;101818.03;5080247;27;45414;-62
2021/12/13 06:41:38;;;;;;;;;17.25;15.50;;;;;10.40;94.04;101818.03;5078385;27;46351;-65
2021/12/13 06:44:17;;;;;;;;;20.25;17.00;;;;;10.40;94.12;101822.41;5077759;28;45252;-63
2021/12/13 06:46:50;;;;;;;;;23.00;18.50;;;;;10.39;94.61;101816.25;5078387;27;45487;-60
2021/12/13 06:49:40;;;;;;;;;23.50;17.50;;;;;10.45;94.47;101825.81;5080177;27;45434;-64
2021/12/13 06:52:11;;;;;;;;;18.25;15.50;;;;;10.47;94.08;101821.38;5077367;28;46372;-59
2021/12/13 06:54:43;;;;;;;;;16.50;16.00;;;;;10.49;94.34;101827.47;5077409;27;45354;-65
2021/12/13 06:57:17;;;;;;;;;16.75;15.75;;;;;10.47;93.83;101818.75;5077679;27;45339;-64
2021/12/13 06:59:55;;;;;;;;;12.75;12.50;;;;;10.47;93.78;101824.91;5079055;27;45172;-65
2021/12/13 07:02:35;;;;;;;;;17.00;15.50;;;;;10.44;94.11;101819.69;5077837;28;45455;-67
2021/12/13 07:05:08;;;;;;;;;19.25;12.50;;;;;10.45;93.84;101817.91;5078821;28;45272;-66
2021/12/13 07:07:39;;;;;;;;;17.00;17.00;;;;;10.45;94.25;101810.03;5077892;27;45266;-59
2021/12/13 07:10:15;;;;;;;;;15.00;13.50;;;;;10.46;94.08;101814.38;5094374;27;45464;-59
2021/12/13 07:12:50;;;;;;;;;19.00;17.00;;;;;10.42;94.25;101810.97;5076707;27;46231;-64
2021/12/13 07:15:26;;;;;;;;;14.25;12.50;;;;;10.42;93.59;101807.44;5078164;27;45481;-67
2021/12/13 07:18:01;;;;;;;;;14.75;10.75;;;;;10.41;93.71;101811.88;5077285;27;45468;-66
2021/12/13 07:20:36;;;;;;;;;12.75;12.00;;;;;10.41;94.39;101808.34;5078115;27;45333;-66
2021/12/13 07:23:03;;;;;;;;;13.75;11.75;;;;;10.41;94.18;101808.34;5080433;28;45452;-68
2021/12/13 07:25:36;;;;;;;;;14.25;10.00;;;;;10.38;93.95;101807.47;5077467;28;45287;-66
2021/12/13 07:28:03;;;;;;;;;17.25;15.25;;;;;10.39;94.67;101811.00;5077533;27;45425;-68
2021/12/13 07:30:31;;;;;;;;;17.50;13.75;;;;;10.40;94.07;101811.88;5077624;28;45314;-67
2021/12/13 07:33:01;;;;;;;;;15.75;14.00;;;;;10.38;94.22;101809.25;5077360;28;45382;-64
2021/12/13 07:35:36;;;;;;;;;19.50;15.25;;;;;10.41;94.74;101818.88;5076991;28;45363;-67
2021/12/13 07:38:09;;;;;;;;;8.75;7.00;;;;;10.44;94.60;101819.69;5077424;27;45381;-66
2021/12/13 07:40:40;;;;;;;;;7.00;5.00;;;;;10.45;94.09;101828.44;5078182;28;45496;-66
2021/12/13 07:43:13;;;;;;;;;11.50;7.00;;;;;10.46;94.23;101828.41;5077949;27;45827;-67
2021/12/13 07:46:00;;;;;;;;;9.75;8.25;;;;;10.46;94.14;101833.69;5077806;27;45349;-67
2021/12/13 07:48:31;;;;;;;;;13.50;11.25;;;;;10.44;94.02;101831.97;5077182;27;45248;-65
2021/12/13 07:51:13;;;;;;;;;11.75;8.50;;;;;10.46;93.91;101824.91;5076144;27;45860;-66
2021/12/13 07:53:57;;;;;;;;;11.75;10.00;;;;;10.48;93.75;101823.09;5076745;28;45384;-66
2021/12/13 07:56:38;;;;;;;;;13.50;10.50;;;;;10.48;93.66;101815.22;5078096;28;45234;-68
2021/12/13 07:59:12;;;;;;;;;4.50;4.25;;;;;10.48;93.61;101826.63;5077962;28;45409;-68
2021/12/13 08:01:51;;;;;;;;;10.00;8.75;;;;;10.50;93.53;101829.22;5076304;27;45615;-58
2021/12/13 08:04:26;;;;;;;;;8.50;7.25;;;;;10.53;93.64;101829.16;5075932;28;46190;-68
2021/12/13 08:06:59;;;;;;;;;11.50;7.50;;;;;10.53;93.59;101821.25;5076725;27;45262;-61
2021/12/13 08:09:28;;;;;;;;;12.50;10.50;;;;;10.50;93.13;101808.16;5076015;27;45425;-61
2021/12/13 08:12:17;;;;;;;;;10.25;10.00;;;;;10.56;93.23;101817.72;5076286;27;45226;-65
2021/12/13 08:14:46;;;;;;;;;10.50;9.75;;;;;10.56;93.71;101817.72;5047392;28;47873;-61
2021/12/13 08:17:23;;;;;;;;;12.75;11.25;;;;;10.57;93.40;101820.28;5061146;28;45498;-63
2021/12/13 08:19:59;;;;;;;;;14.25;13.75;;;;;10.56;93.27;101823.81;5077577;27;45247;-64
2021/12/13 08:22:29;;;;;;;;;16.25;14.75;;;;;10.59;93.33;101831.66;5075393;27;45335;-62
2021/12/13 08:25:06;;;;;;;;;27.50;22.75;;;;;10.61;93.45;101835.16;5076821;27;45662;-79
2021/12/13 08:27:35;;;;;;;;;20.50;17.75;;;;;10.58;93.12;101824.66;5075759;27;45258;-64
2021/12/13 08:30:07;;;;;;;;;21.00;18.50;;;;;10.65;93.62;101838.56;5074885;28;45380;-69
2021/12/13 08:32:32;;;;;;;;;18.25;16.75;;;;;10.66;93.20;101838.56;5075865;27;45493;-63
2021/12/13 08:35:01;;;;;;;;;18.00;17.50;;;;;10.66;93.35;101835.03;5075840;27;46405;-64
2021/12/13 08:37:31;;;;;;;;;18.00;15.75;;;;;10.68;93.58;101835.03;5075032;27;45361;-65
2021/12/13 08:40:05;;;;;;;;;13.50;13.50;;;;;10.66;93.57;101825.41;5077514;27;45275;-58
2021/12/13 08:42:36;;;;;;;;;12.50;12.00;;;;;10.50;93.88;101806.41;5079442;27;45510;-59
2021/12/13 08:45:11;;;;;;;;;16.75;14.75;;;;;10.67;93.19;101842.03;5075208;27;46503;-67
2021/12/13 08:47:43;;;;;;;;;14.25;13.75;;;;;10.65;93.84;101842.09;5076838;27;45280;-66
2021/12/13 08:50:19;;;;;;;;;15.25;12.25;;;;;10.66;93.51;101849.09;5078867;27;45209;-67
2021/12/13 08:52:48;;;;;;;;;12.25;11.00;;;;;10.65;93.26;101834.19;5077826;27;45530;-67
2021/12/13 08:55:21;;;;;;;;;12.75;11.25;;;;;10.65;93.00;101838.56;5077068;27;46243;-67
2021/12/13 08:57:49;;;;;;;;;11.50;10.00;;;;;10.65;93.57;101838.56;5076502;27;45540;-65
2021/12/13 09:00:46;;;;;;;;;12.25;9.25;;;;;10.65;93.43;101838.56;5076292;27;45261;-64
2021/12/13 09:03:14;;;;;;;;;8.25;7.00;;;;;10.65;92.52;101839.44;5091597;27;45393;-68
2021/12/13 09:06:07;;;;;;;;;6.75;6.75;;;;;10.66;91.51;101840.31;5075489;27;46194;-60
2021/12/13 09:08:46;;;;;;;;;10.25;8.75;;;;;10.66;91.49;101845.56;5075780;28;45348;-66
2021/12/13 09:11:31;;;;;;;;;12.25;9.00;;;;;10.69;91.54;101842.03;5075985;27;45412;-66
2021/12/13 09:14:10;;;;;;;;;11.50;8.50;;;;;10.74;92.14;101848.06;5075966;27;45555;-63
2021/12/13 09:17:03;;;;;;;;;14.50;11.25;;;;;10.79;91.49;101846.19;5091083;27;46408;-64
2021/12/13 09:19:42;;;;;;;;;9.00;8.50;;;;;10.84;90.66;101852.22;5075839;27;45312;-65
2021/12/13 09:22:18;;;;;;;;;10.25;7.25;;;;;10.86;89.66;101857.44;5076748;27;45196;-66
2021/12/13 09:24:46;;;;;;;;;16.50;12.50;;;;;10.87;89.40;101859.19;5075629;27;45329;-65
2021/12/13 09:27:19;;;;;;;;;10.25;7.50;;;;;10.88;89.17;101867.06;5075348;27;45544;-65
2021/12/13 09:29:53;;;;;;;;;10.50;8.25;;;;;10.91;89.49;101872.25;5075357;28;45451;-66
2021/12/13 09:32:19;;;;;;;;;13.75;11.75;;;;;10.94;89.73;101869.56;5075035;27;45288;-66
2021/12/13 09:34:45;;;;;;;;;13.50;10.75;;;;;10.98;88.92;101872.97;5075526;28;45321;-65
2021/12/13 09:37:11;;;;;;;;;10.75;9.50;;;;;10.93;88.28;101862.56;5074897;27;46766;-66
2021/12/13 09:39:37;;;;;;;;;12.25;11.25;;;;;10.99;88.06;101863.34;5074308;27;45333;-64
2021/12/13 09:42:14;;;;;;;;;10.25;9.50;;;;;10.99;87.80;101863.34;5075358;28;45349;-63
2021/12/13 09:45:02;;;;;;;;;9.50;9.50;;;;;10.98;87.33;101859.81;5076671;27;45407;-65
2021/12/13 09:47:41;;;;;;;;;14.00;11.50;;;;;10.96;88.28;101865.13;5075864;27;47065;-67
2021/12/13 09:50:13;;;;;;;;;11.75;10.00;;;;;11.04;88.30;101862.31;5074721;27;45410;-66
2021/12/13 09:52:47;;;;;;;;;7.25;6.00;;;;;11.07;87.49;101870.16;5075116;28;45440;-66
2021/12/13 09:55:21;;;;;;;;;7.00;5.50;;;;;11.04;87.46;101857.06;5075659;27;45314;-61
2021/12/13 09:58:03;;;;;;;;;10.50;8.25;;;;;11.07;86.99;101866.66;5075047;28;45360;-67
2021/12/13 10:00:48;;;;;;;;;18.75;13.75;;;;;11.06;87.84;101863.16;5074596;27;45330;-65
2021/12/13 10:03:28;;;;;;;;;23.25;17.00;;;;;11.07;86.99;101864.88;5071069;27;45528;-64
2021/12/13 10:05:58;;;;;;;;;5.25;5.25;;;;;11.09;86.98;101865.72;5075475;27;45321;-64
2021/12/13 10:08:28;;;;;;;;;19.25;19.25;;;;;11.14;86.42;101872.69;5074957;27;45374;-66
2021/12/13 10:10:56;;;;;;;;;5.50;4.75;;;;;11.13;85.09;101876.19;5075423;28;45614;-64
2021/12/13 10:13:35;;;;;;;;;8.00;5.00;;;;;11.09;84.73;101870.97;5075708;27;45279;-67
2021/12/13 10:16:07;;;;;;;;;7.00;4.75;;;;;11.07;85.30;101867.50;5076685;27;45485;-67
2021/12/13 10:18:36;;;;;;;;;6.00;5.25;;;;;11.08;85.03;101857.88;5075607;28;45507;-69
2021/12/13 10:21:13;;;;;;;;;8.75;7.50;;;;;11.08;84.92;101863.13;5075617;27;45314;-66
2021/12/13 10:23:44;;;;;;;;;10.75;6.00;;;;;11.07;84.39;101864.03;5075789;27;45668;-67
2021/12/13 10:26:11;;;;;;;;;4.25;4.25;;;;;11.06;83.69;101864.94;5076270;27;45584;-67
2021/12/13 10:28:40;;;;;;;;;13.75;12.25;;;;;11.02;83.92;101858.00;5073761;28;47583;-62
2021/12/13 10:31:20;;;;;;;;;6.50;6.25;;;;;10.95;83.85;101852.88;5075654;27;45272;-65
2021/12/13 10:33:47;;;;;;;;;9.50;7.75;;;;;10.90;84.34;101852.09;5076052;27;45224;-63
2021/12/13 10:36:13;;;;;;;;;6.50;5.00;;;;;10.86;83.47;101844.28;5075000;27;45335;-65
2021/12/13 10:38:56;;;;;;;;;5.75;5.75;;;;;10.81;84.57;101844.41;5074042;27;45407;-67
2021/12/13 10:41:44;;;;;;;;;5.25;4.75;;;;;10.84;84.51;101849.59;5073371;27;45353;-66
2021/12/13 10:44:14;;;;;;;;;5.00;5.00;;;;;10.85;84.96;101846.06;5074843;27;45382;-64
2021/12/13 10:46:47;;;;;;;;;6.00;6.00;;;;;10.90;84.79;101849.47;5075243;27;45231;-65
2021/12/13 10:49:21;;;;;;;;;4.00;4.00;;;;;10.93;84.01;101845.88;5075814;27;46285;-65
2021/12/13 10:51:54;;;;;;;;;7.00;4.25;;;;;10.96;84.66;101851.09;5078130;27;45372;-63
2021/12/13 10:54:23;;;;;;;;;5.50;5.50;;;;;10.96;84.09;101844.06;5079255;27;45361;-62
2021/12/13 10:56:54;;;;;;;;;7.00;7.00;;;;;10.90;84.01;101841.56;5080106;27;45447;-63
2021/12/13 10:59:25;;;;;;;;;7.00;7.00;;;;;10.81;83.38;101850.50;5079472;27;45412;-64
2021/12/13 11:01:58;;;;;;;;;9.25;8.00;;;;;10.72;84.04;101852.50;5080947;28;45402;-65
2021/12/13 11:04:34;;;;;;;;;14.25;10.75;;;;;10.66;84.87;101849.09;5079951;27;45325;-67
2021/12/13 11:07:05;;;;;;;;;8.75;8.75;;;;;10.68;84.72;101848.19;5081399;28;45518;-67
2021/12/13 11:09:31;;;;;;;;;6.75;6.75;;;;;10.69;84.26;101842.88;5079638;27;45947;-67
2021/12/13 11:12:03;;;;;;;;;6.00;6.00;;;;;10.67;84.69;101842.03;5080074;27;45875;-66
2021/12/13 11:14:31;;;;;;;;;11.50;10.25;;;;;10.69;84.17;101849.91;5079812;27;45231;-66
2021/12/13 11:17:01;;;;;;;;;6.50;6.25;;;;;10.62;84.32;101855.31;5079894;28;45424;-65
2021/12/13 11:19:31;;;;;;;;;11.50;10.50;;;;;10.58;84.07;101850.97;5080100;28;46049;-67
2021/12/13 11:22:02;;;;;;;;;10.00;9.50;;;;;10.57;85.12;101853.66;5077341;27;45357;-65
2021/12/13 11:24:33;;;;;;;;;16.25;15.50;;;;;10.59;84.87;101844.81;5077789;27;45193;-67
2021/12/13 11:27:02;;;;;;;;;6.75;6.75;;;;;10.62;84.84;101850.03;5078992;27;45396;-64
2021/12/13 11:29:28;;;;;;;;;8.75;7.00;;;;;10.62;84.51;101855.31;5077205;27;45348;-66
2021/12/13 11:31:55;;;;;;;;;7.50;6.00;;;;;10.64;83.93;101856.13;5077793;27;45444;-67
2021/12/13 11:34:59;;;;;;;;;6.75;6.75;;;;;10.64;84.18;101856.13;5077615;27;45439;-65
2021/12/13 11:37:45;;;;;;;;;8.50;8.50;;;;;10.62;84.40;101844.78;5077466;28;45371;-64
2021/12/13 11:40:47;;;;;;;;;12.25;11.50;;;;;10.60;83.94;101840.44;5076950;28;46190;-63
2021/12/13 11:43:40;;;;;;;;;10.25;10.25;;;;;10.60;84.55;101843.06;5077560;27;45273;-64
2021/12/13 11:46:06;;;;;;;;;12.25;12.00;;;;;10.61;84.74;101839.53;5078872;27;45415;-61
2021/12/13 11:48:49;;;;;;;;;10.25;10.00;;;;;10.62;84.48;101839.53;5078028;28;45207;-64
2021/12/13 11:51:57;;;;;;;;;22.00;18.50;;;;;10.60;84.33;101835.16;5077332;28;45408;-65
2021/12/13 11:54:50;;;;;;;;;16.75;16.75;;;;;10.59;84.46;101830.81;5076912;27;45375;-67